Time;durP1;ratioP1;P1;durP2;ratioP2;P2;SDS_P1;SDS_P2;PMS_P1;PMS_P2;Temp;Humidity;BMP_temperature;BMP_pressure;BME280_temperature;BME280_humidity;BME280_pressure;Samples;Min_cycle;Max_cycle;Signal;HPM_P1;HPM_P2
2023/09/29 00:00:34;;;;;;;7.15;5.82;;;;;;;24.12;50.51;101584.53;5031288;28;20053;-60
2023/09/29 00:03:01;;;;;;;6.80;5.65;;;;;;;24.11;50.50;101578.28;5030972;28;20049;-60
2023/09/29 00:05:30;;;;;;;6.75;5.65;;;;;;;24.11;50.47;101572.03;5027859;28;20045;-60
2023/09/29 00:07:57;;;;;;;7.68;5.95;;;;;;;24.11;50.39;101583.69;5025602;28;20049;-60
2023/09/29 00:10:25;;;;;;;7.15;6.15;;;;;;;24.12;50.49;101579.13;5030548;28;20052;-60
2023/09/29 00:12:53;;;;;;;7.10;6.10;;;;;;;24.11;50.60;101575.59;5033420;28;20411;-60
2023/09/29 00:15:21;;;;;;;7.72;5.88;;;;;;;24.11;50.67;101572.88;5027351;28;20487;-58
2023/09/29 00:17:49;;;;;;;7.47;5.38;;;;;;;24.12;50.53;101576.44;5025191;28;20045;-60
2023/09/29 00:20:26;;;;;;;6.38;5.28;;;;;;;24.14;50.79;101577.97;5030502;28;20053;-60
2023/09/29 00:22:55;;;;;;;6.18;5.57;;;;;;;24.14;50.53;101569.00;5030165;28;20407;-60
2023/09/29 00:25:23;;;;;;;6.60;5.68;;;;;;;24.15;50.62;101577.00;5030134;28;20049;-60
2023/09/29 00:27:52;;;;;;;6.15;5.50;;;;;;;24.14;51.08;101577.97;5030392;28;20053;-60
2023/09/29 00:30:20;;;;;;;6.10;5.50;;;;;;;24.14;50.62;101575.25;5030811;28;20052;-60
2023/09/29 00:32:49;;;;;;;6.10;5.45;;;;;;;24.13;50.66;101567.31;5002784;28;20054;-60
2023/09/29 00:35:24;;;;;;;6.20;5.60;;;;;;;24.14;50.59;101575.25;5022017;28;20429;-60
2023/09/29 00:37:53;;;;;;;6.75;5.72;;;;;;;24.14;50.81;101575.25;5016740;28;20045;-60
2023/09/29 00:40:22;;;;;;;6.80;5.82;;;;;;;24.12;50.85;101580.00;5028800;28;20057;-63
2023/09/29 00:42:49;;;;;;;6.10;5.50;;;;;;;24.13;50.87;101576.28;5027207;28;20060;-63
2023/09/29 00:45:20;;;;;;;8.13;5.38;;;;;;;24.12;50.85;101574.56;5035412;28;20121;-63
2023/09/29 00:47:52;;;;;;;7.28;6.13;;;;;;;24.12;50.54;101577.28;5030526;28;20045;-63
2023/09/29 00:50:20;;;;;;;6.53;5.03;;;;;;;24.12;50.85;101577.28;5030591;28;20407;-63
2023/09/29 00:52:50;;;;;;;5.90;5.18;;;;;;;24.11;50.81;101578.28;5026053;28;20050;-64
2023/09/29 00:55:22;;;;;;;7.65;5.75;;;;;;;24.12;50.71;101580.00;5028734;28;20049;-63
2023/09/29 00:57:50;;;;;;;8.10;6.03;;;;;;;24.13;51.01;101578.13;5030303;28;20049;-63
2023/09/29 01:00:31;;;;;;;6.90;5.45;;;;;;;24.12;50.82;101587.25;5032575;28;20049;-63
2023/09/29 01:03:02;;;;;;;6.03;5.43;;;;;;;24.12;50.99;101581.84;5020580;28;20045;-63
2023/09/29 01:05:31;;;;;;;6.53;5.35;;;;;;;24.12;50.98;101574.56;5028739;28;20061;-63
2023/09/29 01:07:59;;;;;;;7.63;5.25;;;;;;;24.11;50.71;101575.59;5025213;28;20056;-63
2023/09/29 01:10:26;;;;;;;7.65;5.82;;;;;;;24.10;51.08;101573.84;5026502;28;20042;-63
2023/09/29 01:12:53;;;;;;;6.55;5.18;;;;;;;24.10;51.06;101576.56;5018688;28;20053;-63
2023/09/29 01:15:21;;;;;;;7.30;5.25;;;;;;;24.10;51.06;101575.72;5027119;28;20124;-63
2023/09/29 01:17:48;;;;;;;7.40;5.47;;;;;;;24.10;50.67;101573.00;5025605;28;20049;-64
2023/09/29 01:20:29;;;;;;;6.13;5.53;;;;;;;24.11;50.88;101578.28;5040234;28;20053;-63
2023/09/29 01:23:00;;;;;;;6.88;5.65;;;;;;;24.10;50.91;101579.25;5026577;28;20403;-63
2023/09/29 01:25:28;;;;;;;6.00;5.40;;;;;;;24.10;51.05;101573.00;5027137;28;20049;-63
2023/09/29 01:27:56;;;;;;;6.28;5.43;;;;;;;24.11;50.99;101580.16;5024940;28;20526;-63
2023/09/29 01:30:25;;;;;;;6.03;5.18;;;;;;;24.10;50.74;101579.25;5023445;28;20038;-60
2023/09/29 01:32:57;;;;;;;6.70;5.53;;;;;;;24.10;50.70;101581.97;5018277;28;20052;-60
2023/09/29 01:35:25;;;;;;;6.10;5.47;;;;;;;24.10;50.91;101576.56;5023084;28;20054;-60
2023/09/29 01:37:55;;;;;;;5.75;5.15;;;;;;;24.09;50.75;101572.16;5018042;28;20064;-60
2023/09/29 01:40:23;;;;;;;7.75;5.57;;;;;;;24.09;51.02;101572.16;5022756;28;20050;-60
2023/09/29 01:42:51;;;;;;;5.97;5.38;;;;;;;24.10;50.81;101563.03;5016305;28;20072;-60
2023/09/29 01:45:21;;;;;;;7.55;5.55;;;;;;;24.08;50.82;101565.03;5014784;28;20053;-60
2023/09/29 01:47:49;;;;;;;6.05;5.45;;;;;;;24.10;51.00;101567.59;5033088;28;20053;-60
2023/09/29 01:50:20;;;;;;;6.43;5.80;;;;;;;24.09;51.04;101566.75;5016295;28;20046;-62
2023/09/29 01:52:48;;;;;;;6.40;5.53;;;;;;;24.09;51.00;101564.03;5014947;28;20061;-63
2023/09/29 01:55:20;;;;;;;7.45;5.28;;;;;;;24.10;50.75;101573.84;5016921;28;20407;-63
2023/09/29 01:57:49;;;;;;;6.25;5.15;;;;;;;24.11;51.12;101566.63;5016492;28;20057;-71
2023/09/29 02:00:35;;;;;;;6.05;5.18;;;;;;;24.13;51.00;101564.59;5014747;28;20050;-59
2023/09/29 02:03:07;;;;;;;7.65;5.93;;;;;;;24.13;51.10;101561.91;5028696;28;20061;-59
2023/09/29 02:05:35;;;;;;;6.82;6.15;;;;;;;24.14;51.42;101563.59;5016709;28;20057;-59
2023/09/29 02:08:05;;;;;;;6.47;5.60;;;;;;;24.12;51.14;101566.47;5018623;28;20060;-59
2023/09/29 02:10:33;;;;;;;6.85;5.43;;;;;;;24.13;51.17;101568.16;5018815;28;20396;-59
2023/09/29 02:13:03;;;;;;;6.20;5.35;;;;;;;24.13;51.27;101570.00;5020188;28;20042;-59
2023/09/29 02:15:35;;;;;;;7.43;5.38;;;;;;;24.12;51.19;101571.88;5020629;28;20057;-59
2023/09/29 02:18:07;;;;;;;6.32;5.28;;;;;;;24.11;51.44;101562.06;5018398;28;20058;-59
2023/09/29 02:20:36;;;;;;;6.55;5.45;;;;;;;24.12;50.94;101562.91;5020377;28;20057;-64
2023/09/29 02:23:05;;;;;;;6.70;5.75;;;;;;;24.11;51.21;101564.75;5020805;28;20049;-64
2023/09/29 02:25:33;;;;;;;6.03;5.43;;;;;;;24.11;51.03;101564.75;5018115;28;20073;-64
2023/09/29 02:28:01;;;;;;;6.32;5.72;;;;;;;24.10;51.18;101557.63;5031770;28;20057;-64
2023/09/29 02:30:29;;;;;;;5.97;5.38;;;;;;;24.10;51.10;101568.44;5018256;28;20054;-59
2023/09/29 02:32:57;;;;;;;6.30;5.70;;;;;;;24.09;50.97;101566.75;5021659;28;20057;-59
2023/09/29 02:35:24;;;;;;;6.93;5.60;;;;;;;24.10;51.22;101563.03;4999112;28;20038;-59
2023/09/29 02:37:52;;;;;;;6.90;5.53;;;;;;;24.10;51.12;101564.88;5019922;28;20057;-60
2023/09/29 02:40:22;;;;;;;6.65;5.63;;;;;;;24.10;51.23;101570.31;5034715;28;20060;-64
2023/09/29 02:42:50;;;;;;;6.20;5.20;;;;;;;24.09;51.23;101569.44;5020105;28;20046;-64
2023/09/29 02:45:18;;;;;;;5.47;4.97;;;;;;;24.08;51.16;101562.34;5021334;28;20057;-64
2023/09/29 02:47:47;;;;;;;6.63;5.60;;;;;;;24.09;50.86;101566.75;5020067;28;20057;-64
2023/09/29 02:50:16;;;;;;;6.38;5.63;;;;;;;24.09;50.86;101566.75;5039433;28;20408;-64
2023/09/29 02:52:44;;;;;;;6.43;5.00;;;;;;;24.09;51.13;101560.47;5017667;28;20045;-64
2023/09/29 02:55:12;;;;;;;6.25;5.65;;;;;;;24.09;51.21;101561.34;5019187;28;20060;-64
2023/09/29 02:57:42;;;;;;;6.03;5.38;;;;;;;24.09;51.52;101568.59;5020533;28;20369;-64
2023/09/29 03:00:21;;;;;;;5.90;5.28;;;;;;;24.09;51.11;101560.47;5023972;28;20049;-59
2023/09/29 03:02:51;;;;;;;5.82;5.22;;;;;;;24.08;51.26;101559.63;5020902;28;20046;-59
2023/09/29 03:05:21;;;;;;;5.85;5.25;;;;;;;24.08;50.95;101565.03;5020774;28;20053;-59
2023/09/29 03:07:49;;;;;;;6.28;5.68;;;;;;;24.08;51.06;101559.63;5022665;28;20076;-59
2023/09/29 03:10:20;;;;;;;5.53;4.93;;;;;;;24.08;51.08;101556.94;5036866;28;20397;-59
2023/09/29 03:12:48;;;;;;;5.95;5.28;;;;;;;24.07;51.26;101557.94;5022748;28;20075;-59
2023/09/29 03:15:16;;;;;;;5.53;4.97;;;;;;;24.08;51.40;101553.38;5019459;28;20511;-59
2023/09/29 03:17:46;;;;;;;6.10;5.50;;;;;;;24.07;51.21;101557.94;5024384;28;20410;-59
2023/09/29 03:20:14;;;;;;;6.53;5.55;;;;;;;24.08;51.25;101553.38;5021040;28;20514;-59
2023/09/29 03:22:44;;;;;;;5.78;5.25;;;;;;;24.06;50.98;101556.22;5013671;28;20053;-59
2023/09/29 03:25:16;;;;;;;6.40;5.07;;;;;;;24.07;50.83;101557.94;5019351;28;20519;-59
2023/09/29 03:27:44;;;;;;;;;;;;;;;24.04;50.99;101558.22;5022117;28;20065;-59
2023/09/29 03:30:13;;;;;;;6.35;5.72;;;;;;;24.06;50.84;101561.63;5020680;28;19928;-64
2023/09/29 03:32:40;;;;;;;6.53;5.28;;;;;;;24.06;50.88;101555.34;5020017;28;20452;-64
2023/09/29 03:35:09;;;;;;;6.63;5.38;;;;;;;24.06;51.24;101547.25;5011595;28;20046;-64
2023/09/29 03:37:37;;;;;;;6.20;5.28;;;;;;;24.06;51.08;101558.06;5008520;28;20046;-64
2023/09/29 03:40:09;;;;;;;6.65;5.57;;;;;;;24.06;51.14;101544.53;5019744;28;20475;-64
2023/09/29 03:42:38;;;;;;;5.80;5.13;;;;;;;24.05;50.95;101548.25;5025750;28;20045;-64
2023/09/29 03:45:06;;;;;;;5.18;4.68;;;;;;;24.05;51.19;101553.66;5023535;28;20057;-64
2023/09/29 03:47:34;;;;;;;6.15;5.22;;;;;;;24.06;51.16;101553.50;5021214;28;20052;-64
2023/09/29 03:50:07;;;;;;;5.75;5.20;;;;;;;24.05;51.31;101545.53;5019785;28;20037;-59
2023/09/29 03:52:35;;;;;;;;;;;;;;;24.03;50.96;101551.13;5020291;28;20050;-60
2023/09/29 03:55:03;;;;;;;6.00;4.97;;;;;;;24.03;51.04;101548.41;5023087;28;19925;-59
2023/09/29 03:57:32;;;;;;;8.18;5.50;;;;;;;24.04;51.03;101554.66;5019920;28;20057;-59
2023/09/29 03:59:59;;;;;;;6.07;5.47;;;;;;;24.05;51.26;101554.50;5019560;28;20065;-64
2023/09/29 04:02:27;;;;;;;5.65;5.05;;;;;;;24.04;51.05;101547.41;5022586;28;20046;-65
2023/09/29 04:04:54;;;;;;;5.88;5.25;;;;;;;24.03;50.87;101551.13;5018047;28;20049;-65
2023/09/29 04:07:24;;;;;;;6.05;5.45;;;;;;;24.04;51.01;101552.81;5026776;28;20068;-64
2023/09/29 04:09:51;;;;;;;5.97;4.95;;;;;;;24.04;50.80;101550.09;5030033;28;20053;-59
2023/09/29 04:12:18;;;;;;;5.25;4.75;;;;;;;24.04;51.05;101555.50;5026727;28;20054;-59
2023/09/29 04:14:46;;;;;;;6.22;5.45;;;;;;;24.03;50.68;101559.22;5030275;28;20057;-58
2023/09/29 04:17:13;;;;;;;6.20;5.60;;;;;;;24.01;50.45;101553.09;5027299;28;20407;-57
2023/09/29 04:19:41;;;;;;;6.82;6.22;;;;;;;23.99;49.84;101560.50;5022498;28;20056;-58
2023/09/29 04:22:09;;;;;;;7.78;5.57;;;;;;;23.93;49.65;101555.66;5030041;28;20041;-57
2023/09/29 04:24:37;;;;;;;7.63;6.45;;;;;;;23.89;49.21;101565.06;5028689;28;20093;-57
2023/09/29 04:27:05;;;;;;;7.22;5.93;;;;;;;23.86;49.35;101559.94;5029105;28;20053;-57
2023/09/29 04:29:32;;;;;;;7.28;6.13;;;;;;;23.81;48.96;101557.66;5029906;28;20045;-57
2023/09/29 04:32:00;;;;;;;7.55;5.97;;;;;;;23.80;48.83;101568.66;5022882;28;20046;-58
2023/09/29 04:34:27;;;;;;;7.32;5.80;;;;;;;23.78;49.02;101567.91;5030634;28;20522;-57
2023/09/29 04:36:55;;;;;;;7.03;6.32;;;;;;;23.76;49.18;101570.78;5003368;28;20048;-57
2023/09/29 04:39:22;;;;;;;7.25;6.57;;;;;;;23.75;49.10;101568.22;5019048;28;20068;-58
2023/09/29 04:41:50;;;;;;;8.32;6.53;;;;;;;23.74;48.86;101566.50;5029918;28;20045;-57
2023/09/29 04:44:18;;;;;;;9.75;6.75;;;;;;;23.72;48.60;101568.50;5028052;28;20052;-58
2023/09/29 04:46:45;;;;;;;7.10;6.20;;;;;;;23.68;49.02;101576.91;5018842;28;20061;-58
2023/09/29 04:49:12;;;;;;;7.28;6.10;;;;;;;23.67;48.70;101577.91;5029192;28;20046;-56
2023/09/29 04:51:41;;;;;;;8.30;6.43;;;;;;;23.66;48.47;101592.41;5029407;28;20403;-58
2023/09/29 04:54:10;;;;;;;7.80;6.97;;;;;;;23.65;48.64;101584.41;5029353;28;20495;-58
2023/09/29 04:56:38;;;;;;;7.97;5.82;;;;;;;23.65;48.86;101589.81;5022029;28;20049;-58
2023/09/29 04:59:06;;;;;;;6.97;5.88;;;;;;;23.63;48.87;101594.50;5018571;28;20038;-58
2023/09/29 05:01:33;;;;;;;6.80;6.07;;;;;;;23.61;48.78;101593.78;5026819;28;20042;-58
2023/09/29 05:04:01;;;;;;;8.25;7.30;;;;;;;23.59;48.91;101593.09;5027123;28;20049;-58
2023/09/29 05:06:30;;;;;;;8.10;6.07;;;;;;;23.57;48.71;101592.38;5013437;28;20434;-57
2023/09/29 05:08:59;;;;;;;6.85;6.15;;;;;;;23.55;48.84;101589.81;5011928;28;20046;-58
2023/09/29 05:11:27;;;;;;;7.57;6.40;;;;;;;23.55;48.65;101597.91;5019943;28;20481;-57
2023/09/29 05:13:58;;;;;;;7.47;6.35;;;;;;;23.53;48.46;101596.34;5028108;28;20045;-57
2023/09/29 05:16:25;;;;;;;8.07;7.22;;;;;;;23.52;48.83;101600.03;5018316;28;20046;-58
2023/09/29 05:18:53;;;;;;;7.72;5.93;;;;;;;23.51;48.40;101601.06;5018771;28;20068;-58
2023/09/29 05:21:24;;;;;;;7.55;6.78;;;;;;;23.49;48.62;101606.56;5020295;28;20042;-58
2023/09/29 05:23:51;;;;;;;8.30;6.40;;;;;;;23.48;48.56;101604.88;5027390;28;20056;-58
2023/09/29 05:26:19;;;;;;;8.07;6.15;;;;;;;23.47;48.74;101611.28;5026454;28;20054;-58
2023/09/29 05:28:46;;;;;;;8.48;6.50;;;;;;;23.48;48.60;101612.13;5028983;28;20041;-58
2023/09/29 05:31:14;;;;;;;7.70;6.47;;;;;;;23.47;48.45;101613.13;5021896;28;20045;-58
2023/09/29 05:33:41;;;;;;;7.32;6.25;;;;;;;23.47;48.72;101607.72;5027669;28;20049;-58
2023/09/29 05:36:08;;;;;;;7.03;6.20;;;;;;;23.45;48.35;101611.41;5023659;28;20049;-57
2023/09/29 05:38:36;;;;;;;9.15;6.93;;;;;;;23.44;48.77;101608.84;4998967;28;20054;-58
2023/09/29 05:41:03;;;;;;;7.90;7.10;;;;;;;23.43;48.38;101615.25;5018851;28;20061;-58
2023/09/29 05:43:31;;;;;;;6.85;5.97;;;;;;;23.43;48.54;101616.13;5025035;28;20049;-58
2023/09/29 05:45:58;;;;;;;6.63;5.80;;;;;;;23.43;48.77;101615.25;5018502;28;20042;-58
2023/09/29 05:48:26;;;;;;;7.53;6.43;;;;;;;23.43;48.64;101617.97;5017918;28;20049;-58
2023/09/29 05:50:53;;;;;;;7.57;6.05;;;;;;;23.43;48.61;101612.56;5020204;28;20407;-58
2023/09/29 05:53:21;;;;;;;6.50;5.88;;;;;;;23.42;48.80;101618.97;5020114;28;20052;-58
2023/09/29 05:55:48;;;;;;;7.03;6.18;;;;;;;23.40;48.40;101613.69;5018429;28;20519;-58
2023/09/29 05:58:16;;;;;;;7.97;5.90;;;;;;;23.41;48.55;101614.53;5017836;28;20046;-58
2023/09/29 06:00:43;;;;;;;6.65;5.70;;;;;;;23.41;48.65;101625.34;5019800;28;20057;-57
2023/09/29 06:03:10;;;;;;;7.35;6.45;;;;;;;23.40;48.48;101620.94;5020691;28;20052;-58
2023/09/29 06:05:38;;;;;;;7.13;6.43;;;;;;;23.41;48.55;101620.78;5017894;28;20073;-57
2023/09/29 06:08:07;;;;;;;8.68;6.60;;;;;;;23.43;48.75;101626.91;5017606;28;20050;-57
2023/09/29 06:10:35;;;;;;;8.40;7.28;;;;;;;23.43;48.44;101626.91;5020431;28;20050;-58
2023/09/29 06:13:02;;;;;;;7.25;6.18;;;;;;;23.44;48.81;101636.72;5023190;28;20064;-58
2023/09/29 06:15:31;;;;;;;7.60;6.63;;;;;;;23.46;48.61;101636.59;5018252;28;20143;-58
2023/09/29 06:18:00;;;;;;;8.20;6.30;;;;;;;23.47;48.75;101632.91;5017832;28;20053;-58
2023/09/29 06:20:27;;;;;;;6.57;5.95;;;;;;;23.49;48.71;101632.75;5020396;28;20046;-58
2023/09/29 06:22:55;;;;;;;9.05;5.90;;;;;;;23.50;48.67;101635.34;5019710;28;20050;-57
2023/09/29 06:25:23;;;;;;;6.80;6.00;;;;;;;23.53;48.87;101636.88;5017491;28;20050;-58
2023/09/29 06:27:50;;;;;;;7.30;6.13;;;;;;;23.53;48.55;101642.28;5017528;28;20050;-58
2023/09/29 06:30:17;;;;;;;7.40;6.18;;;;;;;23.55;48.63;101641.16;5023515;28;20057;-57
2023/09/29 06:32:45;;;;;;;7.70;5.80;;;;;;;23.58;48.57;101640.91;5019820;28;20048;-57
2023/09/29 06:35:14;;;;;;;6.47;5.35;;;;;;;23.60;48.64;101649.69;5017899;28;20042;-57
2023/09/29 06:37:42;;;;;;;6.25;5.57;;;;;;;23.62;48.74;101647.72;5011545;28;20046;-57
2023/09/29 06:40:13;;;;;;;7.88;6.50;;;;;;;23.66;48.82;101651.91;5007051;28;20038;-58
2023/09/29 06:42:40;;;;;;;7.07;5.60;;;;;;;23.69;49.08;101653.44;5017500;28;20046;-55
2023/09/29 06:45:09;;;;;;;7.82;5.47;;;;;;;23.71;49.09;101656.88;5026409;28;20042;-56
2023/09/29 06:47:37;;;;;;;6.03;5.43;;;;;;;23.75;49.49;101658.31;5027323;28;20056;-56
2023/09/29 06:50:05;;;;;;;5.97;5.35;;;;;;;23.76;49.50;101659.16;5028888;28;20052;-56
2023/09/29 06:52:32;;;;;;;5.95;5.35;;;;;;;23.78;49.61;101658.03;5028129;28;20046;-56
2023/09/29 06:55:00;;;;;;;7.07;5.78;;;;;;;23.79;50.03;101654.31;5029594;28;20053;-56
2023/09/29 06:57:27;;;;;;;7.72;5.63;;;;;;;23.82;50.41;101655.88;5030969;28;20056;-57
2023/09/29 06:59:55;;;;;;;9.35;5.38;;;;;;;23.82;50.22;101661.28;5026997;28;20480;-54
2023/09/29 07:02:22;;;;;;;6.03;5.15;;;;;;;23.83;50.35;101661.16;5028019;28;20046;-55
2023/09/29 07:04:51;;;;;;;6.40;5.20;;;;;;;23.85;50.57;101661.00;5029690;28;20050;-56
2023/09/29 07:07:18;;;;;;;7.15;5.20;;;;;;;23.85;50.13;101661.00;5031217;28;20045;-55
2023/09/29 07:09:46;;;;;;;6.82;5.82;;;;;;;23.84;50.24;101662.84;5027046;28;20049;-55
2023/09/29 07:12:13;;;;;;;6.15;4.95;;;;;;;23.87;50.80;101656.31;5028362;28;20046;-57
2023/09/29 07:14:41;;;;;;;9.00;5.72;;;;;;;23.87;50.64;101659.88;5029417;28;20046;-57
2023/09/29 07:17:08;;;;;;;6.35;5.72;;;;;;;23.87;50.26;101659.88;5031224;28;20049;-56
2023/09/29 07:19:36;;;;;;;7.07;5.78;;;;;;;23.88;50.13;101656.16;5026130;28;20052;-56
2023/09/29 07:22:12;;;;;;;7.53;5.97;;;;;;;23.87;49.87;101664.44;5022841;28;20038;-56
2023/09/29 07:24:41;;;;;;;6.30;5.70;;;;;;;23.87;49.92;101657.16;5029495;28;20049;-55
2023/09/29 07:27:11;;;;;;;7.90;6.70;;;;;;;23.89;49.57;101654.31;5031270;28;20041;-56
2023/09/29 07:29:39;;;;;;;7.40;5.78;;;;;;;23.89;50.06;101663.28;5029279;28;20060;-59
2023/09/29 07:32:06;;;;;;;6.93;5.95;;;;;;;23.91;50.15;101668.56;5026705;28;20061;-59
2023/09/29 07:34:34;;;;;;;7.25;6.15;;;;;;;23.92;50.05;101665.69;5018356;28;20050;-59
2023/09/29 07:37:01;;;;;;;7.88;6.53;;;;;;;23.91;49.65;101668.56;5030473;28;20113;-59
2023/09/29 07:39:29;;;;;;;9.40;7.20;;;;;;;23.87;49.63;101675.25;5025179;28;20049;-59
2023/09/29 07:41:57;;;;;;;9.02;7.85;;;;;;;23.79;49.50;101672.41;5020052;28;20054;-59
2023/09/29 07:44:24;;;;;;;9.85;8.45;;;;;;;23.71;49.47;101678.50;5021870;28;20461;-59
2023/09/29 07:46:52;;;;;;;9.25;7.93;;;;;;;23.64;49.50;101680.00;5030122;28;20072;-59
2023/09/29 07:49:21;;;;;;;8.90;7.07;;;;;;;23.59;49.47;101682.28;5026754;28;20057;-60
2023/09/29 07:51:49;;;;;;;7.45;6.63;;;;;;;23.57;49.79;101684.25;5026472;28;20053;-61
2023/09/29 07:54:18;;;;;;;8.27;7.15;;;;;;;23.59;49.60;101685.84;5025221;28;20049;-61
2023/09/29 07:56:49;;;;;;;9.50;6.82;;;;;;;23.61;49.83;101685.69;5026994;28;20057;-61
2023/09/29 07:59:19;;;;;;;8.25;5.95;;;;;;;23.64;49.72;101691.69;5027359;28;20416;-61
2023/09/29 08:01:49;;;;;;;6.63;5.50;;;;;;;23.66;49.70;101687.03;5026729;28;20060;-61
2023/09/29 08:04:17;;;;;;;8.13;5.75;;;;;;;23.69;49.82;101684.03;5027833;28;20523;-61
2023/09/29 08:06:47;;;;;;;8.93;6.28;;;;;;;23.72;49.84;101685.59;5029649;28;20045;-61
2023/09/29 08:09:15;;;;;;;8.20;6.25;;;;;;;23.73;50.20;101684.59;5026925;28;20072;-64
2023/09/29 08:11:42;;;;;;;7.05;5.35;;;;;;;23.76;50.16;101689.75;5027888;28;20057;-65
2023/09/29 08:14:10;;;;;;;6.53;5.72;;;;;;;23.78;49.99;101679.66;5028854;28;20049;-65
2023/09/29 08:16:37;;;;;;;7.32;5.55;;;;;;;23.81;50.31;101684.75;5024003;28;20435;-65
2023/09/29 08:19:05;;;;;;;7.75;5.22;;;;;;;23.84;49.97;101686.34;5026431;28;20046;-64
2023/09/29 08:21:33;;;;;;;7.28;5.50;;;;;;;23.85;50.36;101678.06;5027996;28;20049;-65
2023/09/29 08:24:06;;;;;;;6.75;5.30;;;;;;;23.86;50.23;101685.22;5029312;28;20049;-65
2023/09/29 08:26:34;;;;;;;8.07;5.35;;;;;;;23.88;49.95;101690.47;5025990;28;20041;-65
2023/09/29 08:29:02;;;;;;;7.43;5.65;;;;;;;23.89;49.90;101689.47;5015027;28;20049;-61
2023/09/29 08:31:29;;;;;;;9.88;6.03;;;;;;;23.90;49.67;101685.75;5022585;28;20049;-61
2023/09/29 08:33:56;;;;;;;7.05;5.45;;;;;;;23.92;49.78;101700.00;5029306;28;20427;-61
2023/09/29 08:36:24;;;;;;;6.97;6.03;;;;;;;23.93;49.83;101701.72;5027825;28;20060;-59
2023/09/29 08:38:51;;;;;;;7.38;6.57;;;;;;;23.93;49.52;101699.00;5020846;28;20053;-63
2023/09/29 08:41:25;;;;;;;8.18;6.50;;;;;;;23.92;48.88;101703.56;5024496;28;20057;-63
2023/09/29 08:43:53;;;;;;;7.07;5.53;;;;;;;23.90;48.63;101700.16;5029383;28;20412;-63
2023/09/29 08:46:36;;;;;;;8.75;6.50;;;;;;;23.87;48.49;101713.97;5026206;28;20064;-63
2023/09/29 08:49:05;;;;;;;8.43;6.90;;;;;;;23.86;48.38;101712.25;5027424;28;20049;-61
2023/09/29 08:51:33;;;;;;;7.13;6.18;;;;;;;23.84;48.40;101713.38;5026836;28;20049;-61
2023/09/29 08:54:04;;;;;;;8.98;6.82;;;;;;;23.83;48.17;101717.09;5024469;28;20064;-61
2023/09/29 08:56:31;;;;;;;7.68;5.82;;;;;;;23.78;48.11;101709.41;5025008;28;20057;-61
2023/09/29 08:59:01;;;;;;;6.75;5.28;;;;;;;23.77;47.95;101718.47;5026698;28;20464;-61
2023/09/29 09:01:30;;;;;;;6.30;5.70;;;;;;;23.74;47.73;101723.31;5029150;28;20404;-61
2023/09/29 09:03:58;;;;;;;7.68;6.20;;;;;;;23.72;47.65;101719.91;5028430;28;20057;-61
2023/09/29 09:06:26;;;;;;;5.78;5.18;;;;;;;23.69;47.31;101715.63;5023298;28;20088;-61
2023/09/29 09:08:55;;;;;;;6.22;5.30;;;;;;;23.67;47.05;101723.88;5028252;28;20488;-61
2023/09/29 09:11:27;;;;;;;6.00;4.93;;;;;;;23.68;46.91;101716.63;5020723;28;20049;-61
2023/09/29 09:13:59;;;;;;;9.73;5.60;;;;;;;23.67;47.02;101726.59;5026623;28;20045;-61
2023/09/29 09:16:27;;;;;;;5.72;4.57;;;;;;;23.67;47.08;101714.91;5020235;28;20072;-61
2023/09/29 09:18:55;;;;;;;6.18;5.20;;;;;;;23.67;46.53;101723.88;5028288;28;20057;-61
2023/09/29 09:21:32;;;;;;;6.50;4.95;;;;;;;23.68;46.17;101731.00;5027362;28;20403;-61
2023/09/29 09:24:00;;;;;;;7.50;5.60;;;;;;;23.67;45.99;101729.28;5025312;28;20037;-61
2023/09/29 09:26:30;;;;;;;6.82;5.60;;;;;;;23.68;45.40;101724.72;5023470;28;20050;-61
2023/09/29 09:29:13;;;;;;;6.88;4.68;;;;;;;23.69;45.44;101730.00;5028678;28;20411;-62
2023/09/29 09:31:43;;;;;;;6.72;4.95;;;;;;;23.68;45.77;101725.59;5026624;28;20050;-62
2023/09/29 09:34:12;;;;;;;5.95;5.07;;;;;;;23.69;45.78;101723.72;5025564;28;20042;-63
2023/09/29 09:36:49;;;;;;;7.72;5.45;;;;;;;23.71;45.69;101718.19;5019716;28;20061;-63
2023/09/29 09:39:22;;;;;;;6.13;5.15;;;;;;;23.72;45.68;101717.19;5014219;28;20065;-61
2023/09/29 09:41:53;;;;;;;6.43;4.63;;;;;;;23.72;45.69;101718.06;5018816;28;20056;-61
2023/09/29 09:44:22;;;;;;;7.18;5.72;;;;;;;23.75;46.04;101719.63;5012452;28;20294;-61
2023/09/29 09:47:10;;;;;;;8.32;4.88;;;;;;;23.78;45.96;101716.63;5015744;28;20042;-61
2023/09/29 09:49:50;;;;;;;7.25;5.72;;;;;;;23.81;46.03;101711.78;5018243;28;20050;-62
2023/09/29 09:52:39;;;;;;;6.57;4.60;;;;;;;23.82;46.41;101712.66;5012836;28;20057;-63
2023/09/29 09:55:13;;;;;;;7.43;4.85;;;;;;;23.83;46.19;101708.97;5017027;28;20049;-63
2023/09/29 09:57:43;;;;;;;6.30;4.90;;;;;;;23.83;46.00;101709.81;5018254;28;20053;-63
2023/09/29 10:00:12;;;;;;;6.82;5.10;;;;;;;23.83;45.86;101712.53;5018463;28;20056;-61
2023/09/29 10:02:43;;;;;;;7.45;5.13;;;;;;;23.83;46.32;101708.97;5020540;28;20046;-61
2023/09/29 10:05:24;;;;;;;6.38;4.75;;;;;;;23.84;45.84;101702.56;5019328;28;20056;-61
2023/09/29 10:08:03;;;;;;;6.72;5.05;;;;;;;23.83;45.75;101707.13;5027405;28;20049;-61
2023/09/29 10:10:43;;;;;;;6.07;4.82;;;;;;;23.85;45.41;101701.56;5022980;28;20504;-62
2023/09/29 10:13:12;;;;;;;7.45;5.00;;;;;;;23.85;45.69;101701.56;5028944;28;20045;-63
2023/09/29 10:15:39;;;;;;;5.85;4.85;;;;;;;23.87;45.40;101696.88;5027436;28;20058;-62
2023/09/29 10:18:15;;;;;;;6.28;4.97;;;;;;;23.88;45.54;101693.16;5027919;28;20049;-62
2023/09/29 10:20:44;;;;;;;6.05;4.70;;;;;;;23.88;45.30;101690.47;5022571;28;20052;-62
2023/09/29 10:23:15;;;;;;;5.70;4.97;;;;;;;23.88;45.58;101690.47;5028096;28;20053;-63
2023/09/29 10:25:56;;;;;;;5.30;4.32;;;;;;;23.89;45.00;101686.75;5020673;28;20491;-63
2023/09/29 10:28:33;;;;;;;6.80;4.82;;;;;;;23.90;44.88;101680.34;5036867;28;20072;-62
2023/09/29 10:31:08;;;;;;;5.78;4.78;;;;;;;23.90;44.88;101680.34;5019928;28;20065;-63
2023/09/29 10:33:50;;;;;;;6.07;4.85;;;;;;;23.90;44.83;101683.06;5020651;28;20403;-63
2023/09/29 10:36:26;;;;;;;6.60;4.40;;;;;;;23.90;44.74;101688.47;5021738;28;20054;-63
2023/09/29 10:38:59;;;;;;;5.40;4.78;;;;;;;23.90;44.76;101686.63;5023559;28;20057;-62
2023/09/29 10:41:32;;;;;;;5.47;4.63;;;;;;;23.91;44.49;101684.78;5018314;28;20531;-63
2023/09/29 10:44:06;;;;;;;8.68;5.35;;;;;;;23.91;44.54;101688.34;5039940;28;20060;-63
2023/09/29 10:46:34;;;;;;;6.18;5.03;;;;;;;23.93;44.63;101680.06;5022455;28;20057;-63
2023/09/29 10:49:02;;;;;;;5.65;5.05;;;;;;;23.93;45.00;101680.94;5031269;28;20053;-62
2023/09/29 10:51:31;;;;;;;6.38;4.80;;;;;;;23.93;44.80;101678.22;5031233;28;20056;-63
2023/09/29 10:54:06;;;;;;;5.00;4.28;;;;;;;23.94;45.07;101676.38;5031601;28;20045;-62
2023/09/29 10:56:36;;;;;;;7.38;4.82;;;;;;;23.94;44.98;101673.66;5020249;28;20049;-63
2023/09/29 10:59:08;;;;;;;4.78;4.28;;;;;;;23.95;44.71;101678.09;5028788;28;20053;-62
2023/09/29 11:01:36;;;;;;;5.15;4.07;;;;;;;23.97;44.65;101673.38;5029530;28;20053;-63
2023/09/29 11:04:09;;;;;;;6.32;4.32;;;;;;;23.97;44.79;101659.88;5029356;28;20046;-61
2023/09/29 11:06:46;;;;;;;6.10;4.05;;;;;;;23.97;44.95;101654.44;5027844;28;20049;-61
2023/09/29 11:09:20;;;;;;;5.80;4.60;;;;;;;23.99;44.88;101646.22;5031002;28;20053;-61
2023/09/29 11:11:48;;;;;;;6.68;4.72;;;;;;;23.99;44.97;101647.06;5030658;28;20052;-62
2023/09/29 11:14:17;;;;;;;5.40;4.03;;;;;;;24.01;44.93;101645.06;5027082;28;20046;-64
2023/09/29 11:16:57;;;;;;;5.20;3.85;;;;;;;24.02;45.17;101638.63;5030635;28;20049;-65
2023/09/29 11:19:30;;;;;;;4.40;4.00;;;;;;;24.02;45.16;101633.22;5031009;28;20052;-64
2023/09/29 11:22:05;;;;;;;6.63;4.97;;;;;;;24.03;44.54;101637.66;5027431;28;20459;-64
2023/09/29 11:24:40;;;;;;;5.60;4.78;;;;;;;24.04;44.95;101633.97;5028999;28;20049;-65
2023/09/29 11:27:08;;;;;;;6.53;4.45;;;;;;;24.04;44.75;101631.25;5030724;28;20049;-65
2023/09/29 11:29:35;;;;;;;6.72;4.63;;;;;;;24.04;44.57;101639.38;5029662;28;20442;-64
2023/09/29 11:32:04;;;;;;;5.70;4.60;;;;;;;24.04;44.47;101636.66;5026782;28;20049;-64
2023/09/29 11:34:31;;;;;;;5.75;4.18;;;;;;;24.04;44.79;101631.25;5018560;28;20053;-65
2023/09/29 11:36:59;;;;;;;4.65;3.70;;;;;;;24.05;44.94;101624.84;5029723;28;20423;-65